Time;durP1;ratioP1;P1;durP2;ratioP2;P2;SDS_P1;SDS_P2;PMS_P1;PMS_P2;Temp;Humidity;BMP_temperature;BMP_pressure;BME280_temperature;BME280_humidity;BME280_pressure;Samples;Min_cycle;Max_cycle;Signal;HPM_P1;HPM_P2
2021/07/20 00:00:19;;;;;;;26.15;12.93;;;;;;;23.81;100.00;100160.09;1653764;85;21042;-85
2021/07/20 00:02:49;;;;;;;23.00;13.25;;;;;;;23.84;100.00;100155.69;1653948;85;21086;-87
2021/07/20 00:05:23;;;;;;;29.25;13.22;;;;;;;23.90;100.00;100149.02;1636454;86;21122;-86
2021/07/20 00:07:56;;;;;;;25.80;12.80;;;;;;;23.89;100.00;100152.70;1657788;86;21015;-86
2021/07/20 00:10:46;;;;;;;21.68;12.15;;;;;;;23.89;100.00;100155.36;1639740;85;21110;-86
2021/07/20 00:13:14;;;;;;;27.60;13.35;;;;;;;23.90;100.00;100150.34;1634838;86;21023;-86
2021/07/20 00:15:41;;;;;;;23.32;12.80;;;;;;;23.89;100.00;100140.73;1635674;86;21672;-88
2021/07/20 00:18:13;;;;;;;21.37;12.58;;;;;;;23.89;100.00;100140.73;1657439;85;22211;-88
2021/07/20 00:20:42;;;;;;;24.77;13.48;;;;;;;23.88;100.00;100143.09;1636162;86;21119;-87
2021/07/20 00:23:11;;;;;;;24.55;13.58;;;;;;;23.82;100.00;100143.95;1639159;86;21522;-86
2021/07/20 00:25:40;;;;;;;25.95;13.65;;;;;;;23.80;100.00;100146.00;1651076;85;21055;-86
2021/07/20 00:28:07;;;;;;;21.02;13.00;;;;;;;23.82;100.00;100148.44;1652515;86;21074;-85
2021/07/20 00:30:34;;;;;;;26.05;13.88;;;;;;;23.83;100.00;100153.56;1658343;85;21165;-87
2021/07/20 00:33:01;;;;;;;29.15;14.28;;;;;;;23.84;100.00;100144.53;1659575;85;21141;-85
2021/07/20 00:35:28;;;;;;;29.05;14.73;;;;;;;23.83;100.00;100146.08;1654448;85;21529;-86
2021/07/20 00:37:56;;;;;;;30.45;14.30;;;;;;;23.83;100.00;100143.42;1680353;85;21066;-88
2021/07/20 00:40:27;;;;;;;28.87;14.90;;;;;;;23.80;100.00;100143.34;1653395;86;21073;-87
2021/07/20 00:42:55;;;;;;;25.92;13.98;;;;;;;23.75;100.00;100144.52;1664902;85;21813;-88
2021/07/20 00:45:22;;;;;;;25.95;14.47;;;;;;;23.66;100.00;100149.77;1652740;85;20980;-86
2021/07/20 00:47:51;;;;;;;22.40;14.05;;;;;;;23.57;100.00;100146.04;1678610;84;21083;-86
2021/07/20 00:50:24;;;;;;;23.12;14.15;;;;;;;23.50;100.00;100147.92;1663708;84;21048;-86
2021/07/20 00:52:52;;;;;;;29.72;14.70;;;;;;;23.41;100.00;100154.50;1615664;86;21086;-86
2021/07/20 00:55:22;;;;;;;29.57;15.10;;;;;;;23.37;100.00;100159.91;1680193;84;21147;-85
2021/07/20 00:57:50;;;;;;;36.30;14.73;;;;;;;23.29;100.00;100157.80;1663683;83;21085;-87
2021/07/20 01:00:21;;;;;;;23.38;13.88;;;;;;;23.23;100.00;100144.05;1682044;84;21042;-87
2021/07/20 01:02:50;;;;;;;25.88;14.30;;;;;;;23.22;100.00;100149.05;1679877;84;21654;-85
2021/07/20 01:05:22;;;;;;;29.60;14.75;;;;;;;23.24;100.00;100150.16;1664212;84;21061;-87
2021/07/20 01:07:50;;;;;;;25.35;13.90;;;;;;;23.26;100.00;100148.11;1680547;84;21129;-87
2021/07/20 01:10:19;;;;;;;21.57;13.83;;;;;;;23.26;100.00;100154.26;1678288;83;21074;-86
2021/07/20 01:12:49;;;;;;;26.90;13.88;;;;;;;23.26;100.00;100153.43;1685004;83;21102;-86
2021/07/20 01:15:20;;;;;;;28.65;13.85;;;;;;;23.24;100.00;100150.99;1677012;83;21517;-85
2021/07/20 01:17:53;;;;;;;29.50;14.15;;;;;;;23.20;100.00;100148.44;1694050;83;20986;-84
2021/07/20 01:20:22;;;;;;;;;;;;;;;23.14;100.00;100154.56;1664129;84;21059;-87
2021/07/20 01:23:18;;;;;;;26.85;14.18;;;;;;;23.08;100.00;100154.88;1693673;83;20175;-87
2021/07/20 01:25:50;;;;;;;24.95;13.03;;;;;;;23.03;100.00;100157.89;1670081;84;21192;-84
2021/07/20 01:28:22;;;;;;;27.98;13.20;;;;;;;22.96;100.00;100159.22;1685428;82;21085;-85
2021/07/20 01:30:59;;;;;;;31.37;13.32;;;;;;;22.90;100.00;100148.12;1661119;84;20975;-87
2021/07/20 01:33:29;;;;;;;25.02;13.75;;;;;;;22.88;100.00;100148.30;1691666;83;21734;-85
2021/07/20 01:36:03;;;;;;;27.15;13.18;;;;;;;22.88;100.00;100150.16;1691556;82;21626;-87
2021/07/20 01:38:31;;;;;;;22.75;14.10;;;;;;;22.89;100.00;100156.58;1677341;84;21058;-87
2021/07/20 01:41:06;;;;;;;27.80;14.05;;;;;;;22.87;100.00;100152.01;1642447;84;21010;-86
2021/07/20 01:43:36;;;;;;;25.90;14.20;;;;;;;22.85;100.00;100147.41;1685394;84;21146;-86
2021/07/20 01:46:05;;;;;;;23.32;13.20;;;;;;;22.82;100.00;100150.47;1648404;84;21180;-86
2021/07/20 01:48:36;;;;;;;25.27;13.22;;;;;;;22.79;100.00;100151.70;1694130;83;21117;-87
2021/07/20 01:51:06;;;;;;;24.57;12.82;;;;;;;22.78;100.00;100149.27;1701149;82;21077;-87
2021/07/20 01:53:34;;;;;;;23.62;14.00;;;;;;;22.74;100.00;100145.38;1698414;83;20989;-86
2021/07/20 01:56:04;;;;;;;28.15;13.15;;;;;;;22.73;100.00;100154.36;1686536;82;21146;-87
2021/07/20 01:58:41;;;;;;;31.20;13.62;;;;;;;22.75;100.00;100144.36;1687849;83;21245;-87
2021/07/20 02:01:26;;;;;;;26.33;13.75;;;;;;;22.74;100.00;100152.02;1692124;82;21090;-87
2021/07/20 02:04:18;;;;;;;33.40;13.88;;;;;;;22.68;100.00;100147.85;1677380;83;21071;-86
2021/07/20 02:09:23;;;;;;;34.85;13.40;;;;;;;22.59;100.00;100146.44;1633045;85;21102;-86
2021/07/20 02:11:54;;;;;;;26.60;13.35;;;;;;;22.53;100.00;100142.76;1676197;84;21130;-86
2021/07/20 02:14:31;;;;;;;44.98;19.92;;;;;;;22.52;100.00;100141.65;1626956;85;21101;-87
2021/07/20 02:17:01;;;;;;;44.25;25.48;;;;;;;22.46;100.00;100141.95;1677680;84;21078;-85
2021/07/20 02:19:38;;;;;;;43.30;33.00;;;;;;;22.44;100.00;100143.19;1677424;84;21564;-86
2021/07/20 02:22:21;;;;;;;61.30;35.03;;;;;;;22.43;100.00;100139.73;1675033;84;21078;-87
2021/07/20 02:24:52;;;;;;;52.15;34.25;;;;;;;22.38;100.00;100148.76;1679716;84;21151;-85
2021/07/20 02:27:23;;;;;;;48.65;30.72;;;;;;;22.37;100.00;100142.66;1657674;85;21409;-86
2021/07/20 02:30:06;;;;;;;32.73;24.50;;;;;;;22.35;100.00;100149.99;1678912;84;21066;-85
2021/07/20 02:32:34;;;;;;;44.80;21.80;;;;;;;22.31;100.00;100157.23;1650408;86;21063;-84
2021/07/20 02:35:05;;;;;;;38.75;19.42;;;;;;;22.29;100.00;100156.61;1704644;82;21356;-86
2021/07/20 02:37:38;;;;;;;36.50;18.02;;;;;;;22.31;100.00;100151.93;1722517;82;21427;-86
2021/07/20 02:40:09;;;;;;;31.10;17.25;;;;;;;22.32;100.00;100161.52;1722398;82;21615;-87
2021/07/20 02:42:37;;;;;;;;;;;;;;;22.26;100.00;100161.81;1679882;83;21018;-86
2021/07/20 02:45:08;;;;;;;51.48;16.87;;;;;;;22.25;100.00;100159.37;1683831;84;20125;-85
2021/07/20 02:47:37;;;;;;;50.83;17.32;;;;;;;22.25;100.00;100158.86;1657253;85;21105;-84
2021/07/20 02:50:08;;;;;;;43.38;16.73;;;;;;;22.28;100.00;100161.61;1703411;82;21170;-85
2021/07/20 02:52:39;;;;;;;34.15;16.75;;;;;;;22.33;100.00;100156.00;1697885;83;21089;-85
2021/07/20 02:55:09;;;;;;;33.15;16.35;;;;;;;22.39;100.00;100166.34;1679201;83;21078;-86
2021/07/20 02:57:38;;;;;;;35.50;15.63;;;;;;;22.44;100.00;100160.42;1711407;82;21117;-86
2021/07/20 03:00:10;;;;;;;43.40;22.60;;;;;;;22.42;100.00;100163.30;1660275;85;21604;-85
2021/07/20 03:02:44;;;;;;;79.17;38.53;;;;;;;22.41;100.00;100163.47;1700857;82;21037;-85
2021/07/20 03:05:15;;;;;;;69.87;37.05;;;;;;;22.33;100.00;100169.27;1717353;82;21019;-83
2021/07/20 03:07:51;;;;;;;66.28;32.50;;;;;;;22.31;100.00;100173.14;1718669;81;21587;-82
2021/07/20 03:10:22;;;;;;;36.00;23.30;;;;;;;22.34;100.00;100170.90;1730169;81;21015;-87
2021/07/20 03:12:54;;;;;;;40.43;22.75;;;;;;;22.33;100.00;100177.74;1725741;81;21110;-84
2021/07/20 03:15:24;;;;;;;38.85;20.92;;;;;;;22.30;100.00;100176.81;1739274;82;21150;-85
2021/07/20 03:17:54;;;;;;;30.82;17.05;;;;;;;22.28;100.00;100171.72;1729296;82;20963;-86
2021/07/20 03:20:24;;;;;;;24.57;15.43;;;;;;;22.28;100.00;100171.72;1705523;81;21702;-86
2021/07/20 03:22:53;;;;;;;31.80;16.93;;;;;;;22.26;100.00;100169.77;1736983;82;21043;-85
2021/07/20 03:25:22;;;;;;;25.25;16.15;;;;;;;22.28;100.00;100169.06;1716205;82;21085;-87
2021/07/20 03:27:52;;;;;;;30.80;16.23;;;;;;;22.31;100.00;100167.31;1702085;82;21552;-86
2021/07/20 03:30:24;;;;;;;23.87;16.00;;;;;;;22.36;100.00;100166.22;1632177;84;21050;-86
2021/07/20 03:32:52;;;;;;;30.88;16.20;;;;;;;22.42;100.00;100165.11;1650366;85;21596;-87
2021/07/20 03:35:22;;;;;;;24.52;15.60;;;;;;;22.43;100.00;100167.58;1670337;84;21038;-86
2021/07/20 03:37:51;;;;;;;20.95;13.90;;;;;;;22.48;100.00;100171.75;1706952;82;21018;-87
2021/07/20 03:40:20;;;;;;;24.63;15.00;;;;;;;22.56;100.00;100174.69;1697008;82;21643;-87
2021/07/20 03:42:48;;;;;;;24.00;14.87;;;;;;;22.62;100.00;100175.71;1729643;82;21423;-87
2021/07/20 03:45:16;;;;;;;25.80;14.20;;;;;;;22.69;100.00;100176.02;1715259;82;20998;-87
2021/07/20 03:47:44;;;;;;;26.73;15.50;;;;;;;22.77;100.00;100183.45;1696245;81;21523;-86
2021/07/20 03:50:17;;;;;;;25.55;14.45;;;;;;;22.83;100.00;100180.77;1732800;81;20947;-86
2021/07/20 03:52:46;;;;;;;21.62;14.87;;;;;;;22.88;100.00;100180.68;1668475;83;21101;-87
2021/07/20 03:55:18;;;;;;;27.27;15.45;;;;;;;22.90;100.00;100185.28;1706468;83;21105;-86
2021/07/20 03:57:46;;;;;;;22.55;15.05;;;;;;;22.91;100.00;100186.39;1699932;83;20979;-86
2021/07/20 04:00:16;;;;;;;24.55;14.03;;;;;;;22.94;100.00;100182.00;1728209;82;21031;-86
2021/07/20 04:03:21;;;;;;;21.15;14.07;;;;;;;23.00;100.00;100184.31;1708274;83;21652;-86
2021/07/20 04:05:44;;;;;;;25.17;14.00;;;;;;;23.06;100.00;100190.64;1649464;82;21996;-86
2021/07/20 04:08:19;;;;;;;22.85;14.00;;;;;;;23.15;100.00;100187.54;1707484;82;21019;-86
2021/07/20 04:10:51;;;;;;;19.55;13.65;;;;;;;23.20;100.00;100186.95;1720043;81;21025;-86
2021/07/20 04:13:25;;;;;;;21.48;13.90;;;;;;;23.24;100.00;100188.17;1731395;82;21058;-86
2021/07/20 04:15:59;;;;;;;18.15;13.15;;;;;;;23.29;100.00;100185.69;1705858;81;21007;-86
2021/07/20 04:18:29;;;;;;;18.77;13.28;;;;;;;23.37;100.00;100183.82;1706506;81;21129;-86
2021/07/20 04:20:58;;;;;;;25.50;14.33;;;;;;;23.44;100.00;100178.80;1679322;83;28262;-86
2021/07/20 04:23:26;;;;;;;20.23;13.22;;;;;;;23.53;100.00;100174.05;1676807;83;21113;-86
2021/07/20 04:25:55;;;;;;;24.35;14.70;;;;;;;23.63;100.00;100173.08;1694974;83;21112;-87
2021/07/20 04:28:25;;;;;;;21.10;13.72;;;;;;;23.72;100.00;100176.83;1694645;83;21145;-86
2021/07/20 04:30:57;;;;;;;24.92;13.03;;;;;;;23.80;100.00;100167.27;1674892;83;21094;-87
2021/07/20 04:33:30;;;;;;;26.37;14.47;;;;;;;23.90;100.00;100164.13;1700176;82;21605;-86
2021/07/20 04:36:01;;;;;;;23.47;14.20;;;;;;;23.99;100.00;100164.73;1712170;81;21050;-85
2021/07/20 04:38:36;;;;;;;133.72;72.65;;;;;;;24.06;100.00;100164.17;1706127;82;21512;-87
2021/07/20 04:41:16;;;;;;;;;;;;;;;;;;;;;
2021/07/20 04:43:45;;;;;;;402.82;258.43;;;;;;;24.26;100.00;100158.70;1693763;83;21356;-85
2021/07/20 04:46:14;;;;;;;143.70;96.80;;;;;;;24.35;100.00;100165.38;1710099;82;20954;-87
2021/07/20 04:48:42;;;;;;;66.12;42.27;;;;;;;24.44;100.00;100167.23;1711889;82;21050;-86
2021/07/20 04:51:14;;;;;;;44.45;23.70;;;;;;;24.52;100.00;100163.47;1683283;82;21634;-86
2021/07/20 04:53:42;;;;;;;32.78;17.45;;;;;;;24.58;100.00;100166.61;1724440;82;21557;-86
2021/07/20 04:56:09;;;;;;;28.73;15.78;;;;;;;24.66;100.00;100168.16;1717999;82;21161;-82
2021/07/20 04:58:39;;;;;;;24.43;14.18;;;;;;;24.75;100.00;100167.41;1676421;84;21067;-83
2021/07/20 05:01:08;;;;;;;27.52;14.65;;;;;;;24.82;100.00;100169.48;1678346;83;20963;-85
2021/07/20 05:03:37;;;;;;;23.47;13.88;;;;;;;24.91;100.00;100175.31;1701513;81;21524;-84
2021/07/20 05:06:05;;;;;;;23.57;13.83;;;;;;;24.98;100.00;100172.89;1678351;83;21442;-84
2021/07/20 05:08:35;;;;;;;23.30;15.00;;;;;;;25.07;100.00;100180.05;1702883;81;21087;-87
2021/07/20 05:11:05;;;;;;;28.40;13.80;;;;;;;25.14;100.00;100187.45;1658487;84;21125;-86
2021/07/20 05:13:34;;;;;;;32.42;14.20;;;;;;;25.23;100.00;100191.15;1730860;82;21675;-86
2021/07/20 05:16:05;;;;;;;29.57;15.00;;;;;;;25.34;100.00;100197.08;1703874;83;21958;-86
2021/07/20 05:18:37;;;;;;;21.87;13.80;;;;;;;25.41;100.00;100199.16;1711131;82;21074;-85
2021/07/20 05:25:16;;;;;;;22.07;13.93;;;;;;;25.52;100.00;100201.59;1694215;84;21027;-86
2021/07/20 05:28:27;;;;;;;25.95;14.45;;;;;;;25.66;100.00;100200.91;1680705;84;21066;-87
2021/07/20 05:31:01;;;;;;;29.15;14.00;;;;;;;25.72;100.00;100198.66;1700367;84;21039;-90
2021/07/20 05:33:31;;;;;;;26.12;14.38;;;;;;;25.80;100.00;100199.67;1655529;81;21235;-89
2021/07/20 05:36:03;;;;;;;25.75;14.85;;;;;;;25.88;100.00;100199.86;1734185;81;21130;-83
2021/07/20 05:38:31;;;;;;;22.95;14.43;;;;;;;25.98;100.00;100200.66;1699000;83;21114;-87
2021/07/20 05:41:17;;;;;;;28.30;14.98;;;;;;;26.04;100.00;100201.08;1682445;83;21033;-83
2021/07/20 05:43:45;;;;;;;23.25;14.98;;;;;;;26.12;100.00;100199.95;1695475;83;21007;-86
2021/07/20 05:46:13;;;;;;;35.50;14.93;;;;;;;26.21;100.00;100193.78;1706427;83;21065;-84
2021/07/20 05:48:42;;;;;;;26.35;14.63;;;;;;;26.29;100.00;100193.45;1689281;81;21091;-87
2021/07/20 05:51:12;;;;;;;28.80;15.18;;;;;;;26.34;100.00;100193.56;1726706;81;20971;-86
2021/07/20 05:53:41;;;;;;;27.70;14.90;;;;;;;26.39;100.00;100193.70;1730772;81;21081;-86
2021/07/20 05:56:33;;;;;;;28.02;14.58;;;;;;;26.47;100.00;100194.39;1698652;82;21533;-87
2021/07/20 05:59:06;;;;;;;29.02;14.30;;;;;;;26.55;100.00;100199.39;1730901;82;21081;-85
2021/07/20 06:01:35;;;;;;;22.90;14.33;;;;;;;26.61;100.00;100207.27;1728691;82;21153;-85
2021/07/20 06:04:03;;;;;;;20.80;13.50;;;;;;;26.67;100.00;100208.20;1723082;82;20990;-85
2021/07/20 06:06:31;;;;;;;29.80;15.58;;;;;;;26.76;100.00;100212.18;1730410;81;21027;-87
2021/07/20 06:08:59;;;;;;;27.00;14.68;;;;;;;26.83;100.00;100207.23;1733031;82;21046;-85
2021/07/20 06:11:28;;;;;;;26.05;13.93;;;;;;;26.94;100.00;100214.44;1717012;82;21005;-86
2021/07/20 06:13:56;;;;;;;28.73;14.65;;;;;;;27.02;100.00;100215.42;1710117;82;21235;-88
2021/07/20 06:16:26;;;;;;;25.20;15.13;;;;;;;27.11;100.00;100216.39;1708282;82;21062;-87
2021/07/20 06:18:53;;;;;;;21.55;13.83;;;;;;;27.20;100.00;100210.98;1679987;83;21043;-85
2021/07/20 06:21:22;;;;;;;31.68;16.57;;;;;;;27.29;100.00;100214.08;1694451;81;21173;-86
2021/07/20 06:23:51;;;;;;;26.30;15.28;;;;;;;27.39;100.00;100211.62;1739230;81;21132;-85
2021/07/20 06:26:24;;;;;;;22.45;14.90;;;;;;;27.48;100.00;100214.75;1693608;82;21576;-84
2021/07/20 06:29:01;;;;;;;25.88;14.63;;;;;;;27.58;100.00;100214.95;1711649;82;21065;-86
2021/07/20 06:31:30;;;;;;;23.35;14.35;;;;;;;27.64;100.00;100220.68;1698818;82;21051;-87
2021/07/20 06:33:57;;;;;;;31.37;14.85;;;;;;;27.75;100.00;100224.89;1686749;83;21058;-85
2021/07/20 06:36:25;;;;;;;20.02;13.90;;;;;;;27.86;100.00;100221.33;1720736;82;20950;-85
2021/07/20 06:38:54;;;;;;;22.10;14.05;;;;;;;28.00;100.00;100223.19;1686854;83;21089;-85
2021/07/20 06:41:21;;;;;;;27.82;15.30;;;;;;;28.11;100.00;100218.84;1688273;83;21576;-86
2021/07/20 06:43:51;;;;;;;29.30;15.83;;;;;;;28.21;100.00;100222.22;1722504;82;21509;-87
2021/07/20 06:46:22;;;;;;;35.85;15.48;;;;;;;28.32;100.00;100218.66;1687285;83;20966;-86
2021/07/20 06:48:50;;;;;;;31.33;14.68;;;;;;;28.44;100.00;100219.92;1696048;83;21045;-87
2021/07/20 06:51:17;;;;;;;25.40;14.65;;;;;;;28.55;100.00;100217.69;1700736;83;21808;-86
2021/07/20 06:53:44;;;;;;;25.48;15.03;;;;;;;28.65;100.00;100219.16;1700912;83;21025;-87
2021/07/20 06:56:22;;;;;;;26.95;14.25;;;;;;;28.74;100.00;100214.75;1684106;83;21183;-85
2021/07/20 06:58:51;;;;;;;20.60;13.32;;;;;;;28.83;100.00;100214.62;1689388;83;21006;-87
2021/07/20 07:01:21;;;;;;;25.17;12.55;;;;;;;28.95;100.00;100214.50;1694621;83;21060;-85
2021/07/20 07:04:04;;;;;;;20.23;12.88;;;;;;;29.04;100.00;100216.25;1689148;83;21141;-86
2021/07/20 07:06:35;;;;;;;18.87;12.10;;;;;;;29.12;100.00;100208.57;1690219;83;21055;-85
2021/07/20 07:09:03;;;;;;;24.43;13.45;;;;;;;29.24;100.00;100216.48;1690219;83;21046;-84
2021/07/20 07:11:31;;;;;;;27.20;13.43;;;;;;;29.36;100.00;100207.55;1704132;83;21219;-85
2021/07/20 07:13:59;;;;;;;22.55;13.88;;;;;;;29.46;100.00;100213.00;1703918;83;21148;-87
2021/07/20 07:16:27;;;;;;;28.00;12.55;;;;;;;29.53;100.00;100214.95;1676819;83;21102;-86
2021/07/20 07:18:56;;;;;;;20.77;12.07;;;;;;;29.63;100.00;100217.47;1708718;83;21049;-85
2021/07/20 07:21:25;;;;;;;23.73;12.78;;;;;;;29.71;100.00;100211.66;1680838;83;21026;-86
2021/07/20 07:23:53;;;;;;;30.02;13.83;;;;;;;29.80;100.00;100216.84;1704118;83;21061;-86
2021/07/20 07:26:21;;;;;;;27.75;13.55;;;;;;;29.91;100.00;100205.67;1701148;83;21082;-86
2021/07/20 07:28:52;;;;;;;21.17;12.43;;;;;;;30.01;100.00;100214.38;1688239;83;21191;-86
2021/07/20 07:31:19;;;;;;;;;;;;;;;30.10;100.00;100212.84;1683652;84;21019;-87
2021/07/20 07:33:47;;;;;;;30.48;12.70;;;;;;;30.19;100.00;100211.86;1690201;83;20451;-86
2021/07/20 07:36:17;;;;;;;24.65;12.23;;;;;;;30.30;100.00;100209.52;1698902;83;21144;-87
2021/07/20 07:38:47;;;;;;;28.47;12.58;;;;;;;30.40;100.00;100206.11;1706569;83;21058;-86
2021/07/20 07:41:16;;;;;;;27.42;13.10;;;;;;;30.49;100.00;100207.23;1684427;83;21066;-86
2021/07/20 07:43:44;;;;;;;21.40;12.15;;;;;;;30.60;100.00;100207.33;1706113;83;21089;-86
2021/07/20 07:46:14;;;;;;;23.87;11.90;;;;;;;30.66;100.00;100205.77;1689738;83;21092;-86
2021/07/20 07:48:42;;;;;;;18.90;10.90;;;;;;;30.72;100.00;100211.98;1676685;83;21014;-85
2021/07/20 07:51:10;;;;;;;20.88;11.63;;;;;;;30.76;100.00;100209.04;1684146;83;21062;-87
2021/07/20 07:53:43;;;;;;;22.22;11.85;;;;;;;30.80;100.00;100207.47;1683320;83;21148;-86
2021/07/20 07:56:11;;;;;;;21.93;11.85;;;;;;;30.87;100.00;100205.87;1706599;83;21038;-86
2021/07/20 07:58:39;;;;;;;18.92;11.15;;;;;;;30.94;100.00;100202.41;1679720;83;21125;-86
2021/07/20 08:01:09;;;;;;;20.65;11.25;;;;;;;31.03;100.00;100202.73;1674200;83;21074;-86
2021/07/20 08:03:41;;;;;;;26.27;12.65;;;;;;;31.09;100.00;100204.88;1679392;83;20963;-87
2021/07/20 08:06:10;;;;;;;22.42;12.68;;;;;;;31.15;100.00;100201.98;1684309;83;21057;-87
2021/07/20 08:08:39;;;;;;;17.05;11.80;;;;;;;31.28;100.00;100199.34;1699470;83;21513;-87
2021/07/20 08:11:11;;;;;;;22.48;12.23;;;;;;;31.39;100.00;100204.77;1685145;83;21191;-87
2021/07/20 08:13:39;;;;;;;23.20;11.43;;;;;;;31.49;100.00;100209.36;1705572;83;21093;-87
2021/07/20 08:16:08;;;;;;;30.12;12.10;;;;;;;31.59;100.00;100202.66;1707805;83;21146;-85
2021/07/20 08:18:36;;;;;;;21.68;11.50;;;;;;;31.69;100.00;100201.89;1694793;83;21277;-86
2021/07/20 08:21:06;;;;;;;22.00;11.10;;;;;;;31.76;100.00;100202.44;1694299;83;21017;-86
2021/07/20 08:23:34;;;;;;;18.75;10.90;;;;;;;31.80;99.24;100194.11;1706316;83;21085;-87
2021/07/20 08:26:14;;;;;;;16.07;10.75;;;;;;;31.86;100.00;100201.62;1701987;83;21541;-87
2021/07/20 08:29:10;;;;;;;27.02;11.20;;;;;;;31.90;97.20;100200.03;1693598;83;21046;-86
2021/07/20 08:31:56;;;;;;;25.32;11.25;;;;;;;31.98;97.54;100198.67;1675557;83;21094;-86
2021/07/20 08:34:27;;;;;;;16.25;10.90;;;;;;;32.07;100.00;100195.20;1716147;82;20987;-85
2021/07/20 08:37:03;;;;;;;23.57;12.23;;;;;;;32.12;95.95;100193.05;1707810;82;21082;-86
2021/07/20 08:39:30;;;;;;;25.25;10.95;;;;;;;32.15;99.23;100187.09;1693530;83;22285;-85
2021/07/20 08:42:29;;;;;;;18.27;9.60;;;;;;;32.21;99.72;100190.05;1713861;81;21066;-86
2021/07/20 08:45:20;;;;;;;22.40;10.72;;;;;;;32.32;93.48;100194.94;1699025;82;21187;-86
2021/07/20 08:48:32;;;;;;;18.35;10.60;;;;;;;32.34;89.02;100194.11;1696777;82;21090;-86
2021/07/20 08:51:04;;;;;;;19.77;10.55;;;;;;;32.33;88.74;100197.08;1705609;83;21051;-85
2021/07/20 08:53:55;;;;;;;18.45;9.88;;;;;;;32.38;80.58;100196.55;1637434;86;21043;-85
2021/07/20 08:56:25;;;;;;;17.57;10.60;;;;;;;32.43;89.57;100193.03;1639814;85;21588;-85
2021/07/20 08:59:03;;;;;;;21.37;11.22;;;;;;;32.49;83.12;100187.10;1624285;85;21144;-86
2021/07/20 09:01:35;;;;;;;17.23;9.78;;;;;;;32.54;85.31;100187.08;1714618;83;21136;-86
2021/07/20 09:04:21;;;;;;;26.17;10.32;;;;;;;32.64;78.35;100186.24;1659566;84;20984;-86
2021/07/20 09:06:53;;;;;;;22.62;9.98;;;;;;;32.79;82.07;100178.69;1621397;86;21579;-86
2021/07/20 09:09:33;;;;;;;17.37;10.03;;;;;;;32.87;79.99;100176.22;1666776;84;21077;-85
2021/07/20 09:12:08;;;;;;;21.77;10.08;;;;;;;32.87;78.89;100174.08;1667388;84;21172;-85
2021/07/20 09:15:13;;;;;;;18.87;9.53;;;;;;;32.89;83.37;100171.89;1679374;84;21065;-85
2021/07/20 09:18:02;;;;;;;20.20;10.48;;;;;;;32.97;87.68;100174.02;1655458;85;21128;-85
2021/07/20 09:20:39;;;;;;;16.62;10.08;;;;;;;33.00;77.30;100170.77;1644520;84;21104;-85
2021/07/20 09:23:30;;;;;;;16.23;8.73;;;;;;;32.99;77.78;100169.71;1651934;85;21161;-86
2021/07/20 09:26:15;;;;;;;25.30;10.35;;;;;;;32.97;68.14;100169.97;1736739;82;21153;-87
2021/07/20 09:29:07;;;;;;;18.82;10.82;;;;;;;32.95;67.23;100165.94;1703178;82;21942;-84
2021/07/20 09:31:58;;;;;;;14.85;9.00;;;;;;;33.00;62.75;100174.02;1708401;82;21038;-86
2021/07/20 09:34:42;;;;;;;25.40;10.63;;;;;;;33.02;60.30;100163.22;1726185;82;21050;-85
2021/07/20 09:37:15;;;;;;;20.25;9.50;;;;;;;33.05;63.28;100164.55;1733938;82;21094;-85
2021/07/20 09:40:04;;;;;;;20.77;10.10;;;;;;;33.09;70.12;100164.25;1724090;81;21739;-87
2021/07/20 09:42:54;;;;;;;16.20;10.23;;;;;;;33.16;68.57;100166.66;1711954;81;21481;-85
2021/07/20 09:45:32;;;;;;;24.25;10.95;;;;;;;33.27;68.14;100164.17;1703014;82;21864;-85
2021/07/20 09:48:18;;;;;;;15.48;10.00;;;;;;;33.34;66.13;100163.88;1733724;82;21988;-87
2021/07/20 09:50:43;;;;;;;20.20;9.80;;;;;;;33.31;66.42;100162.55;1735593;82;21121;-86
2021/07/20 09:53:38;;;;;;;18.05;10.30;;;;;;;33.33;60.19;100160.38;1735459;82;21172;-84
2021/07/20 09:56:16;;;;;;;19.02;10.15;;;;;;;33.39;67.57;100158.99;1731089;82;21018;-85
2021/07/20 09:59:23;;;;;;;22.58;11.25;;;;;;;33.61;63.98;100151.27;1721947;81;21085;-84
2021/07/20 10:01:57;;;;;;;18.20;10.63;;;;;;;33.61;63.98;100151.27;1705761;82;21611;-86
2021/07/20 10:04:53;;;;;;;20.55;11.00;;;;;;;33.77;62.14;100148.48;1678780;84;22043;-85
2021/07/20 10:07:40;;;;;;;22.32;11.10;;;;;;;33.84;52.16;100151.66;1690189;81;21155;-86
2021/07/20 10:10:22;;;;;;;25.27;9.93;;;;;;;33.84;52.16;100151.66;1707465;81;21521;-85
2021/07/20 10:13:12;;;;;;;16.80;9.50;;;;;;;33.86;53.30;100141.95;1670772;82;22072;-86
2021/07/20 10:16:22;;;;;;;16.97;11.05;;;;;;;33.99;53.93;100147.23;1689315;82;21618;-86
2021/07/20 10:19:08;;;;;;;22.10;10.65;;;;;;;33.99;53.93;100147.23;1713902;82;21243;-86
2021/07/20 10:21:39;;;;;;;21.12;10.75;;;;;;;33.99;54.23;100142.63;1677552;81;21031;-86
2021/07/20 10:24:11;;;;;;;20.12;10.25;;;;;;;33.99;54.23;100142.63;1709478;81;21699;-85
2021/07/20 10:27:05;;;;;;;18.85;10.50;;;;;;;34.10;58.48;100144.69;1719432;82;21535;-87
2021/07/20 10:30:08;;;;;;;18.75;10.13;;;;;;;34.18;55.77;100135.17;1706346;82;21100;-86
2021/07/20 10:33:03;;;;;;;24.32;10.82;;;;;;;34.24;54.56;100129.97;1687304;82;21091;-85
2021/07/20 10:36:00;;;;;;;19.27;10.48;;;;;;;34.24;54.56;100129.97;1701281;82;21088;-85
2021/07/20 10:38:41;;;;;;;24.92;10.90;;;;;;;34.42;52.04;100126.56;1715432;81;21561;-85
2021/07/20 10:41:16;;;;;;;19.85;10.23;;;;;;;34.42;52.04;100126.56;1694816;82;21562;-86
2021/07/20 10:43:58;;;;;;;22.62;10.40;;;;;;;34.46;50.95;100132.20;1714156;81;21082;-86
2021/07/20 10:46:29;;;;;;;20.23;10.50;;;;;;;34.50;56.43;100135.92;1703740;82;21034;-86
2021/07/20 10:49:03;;;;;;;20.62;9.65;;;;;;;34.49;53.04;100127.58;1687860;82;21148;-87
2021/07/20 10:51:36;;;;;;;14.55;9.83;;;;;;;34.48;56.58;100130.02;1689477;83;20954;-86
2021/07/20 10:54:20;;;;;;;24.02;10.40;;;;;;;34.45;58.42;100129.23;1712712;83;21060;-85
2021/07/20 10:56:58;;;;;;;20.82;9.90;;;;;;;34.44;59.17;100124.92;1675217;82;21009;-85
2021/07/20 11:00:07;;;;;;;17.95;9.35;;;;;;;34.48;57.52;100125.97;1691570;83;21050;-86
2021/07/20 11:02:48;;;;;;;16.50;9.85;;;;;;;34.54;53.66;100126.16;1692108;83;21870;-84
2021/07/20 11:05:17;;;;;;;19.45;9.45;;;;;;;34.51;53.95;100122.67;1717065;82;21003;-86
2021/07/20 11:08:00;;;;;;;18.82;10.43;;;;;;;34.53;54.13;100128.60;1695524;84;21982;-86
2021/07/20 11:10:44;;;;;;;19.75;10.03;;;;;;;34.52;51.05;100117.53;1694148;83;21019;-85
2021/07/20 11:13:28;;;;;;;17.90;10.30;;;;;;;34.58;50.92;100125.83;1669488;85;21188;-84
2021/07/20 11:15:59;;;;;;;20.17;10.50;;;;;;;34.65;48.80;100119.29;1690808;83;21145;-85
2021/07/20 11:18:32;;;;;;;16.32;9.28;;;;;;;34.70;48.55;100109.75;1689270;83;21585;-85
2021/07/20 11:21:01;;;;;;;19.77;9.55;;;;;;;34.83;51.48;100106.88;1687062;83;21049;-85
2021/07/20 11:23:33;;;;;;;21.97;10.20;;;;;;;34.94;53.50;100106.22;1694075;83;21031;-85
2021/07/20 11:26:02;;;;;;;17.17;9.75;;;;;;;35.01;53.55;100106.66;1695347;83;21053;-85
2021/07/20 11:28:30;;;;;;;20.05;10.48;;;;;;;35.06;52.15;100105.23;1705385;83;21215;-86
2021/07/20 11:31:02;;;;;;;15.48;8.68;;;;;;;35.12;50.48;100106.78;1706255;83;21109;-84
2021/07/20 11:33:43;;;;;;;14.00;9.15;;;;;;;35.14;53.24;100107.27;1670494;83;21054;-84
2021/07/20 11:36:14;;;;;;;14.90;9.15;;;;;;;35.15;48.85;100102.69;1641661;85;21110;-85
2021/07/20 11:38:45;;;;;;;20.20;10.35;;;;;;;35.10;53.29;100100.03;1692096;83;21018;-85
2021/07/20 11:41:37;;;;;;;18.35;9.08;;;;;;;35.07;49.11;100089.26;1699448;83;21151;-86
2021/07/20 11:44:35;;;;;;;14.43;8.93;;;;;;;35.01;51.78;100092.61;1669630;83;21523;-85